createdAt,value
2022-11-01T00:00:00.000Z,21.53
2022-11-01T00:15:00.000Z,24.82
2022-11-01T00:30:00.000Z,23.42
2022-11-01T00:45:00.000Z,23.87
2022-11-01T01:00:00.000Z,22.26
2022-11-01T01:15:00.000Z,22.45
2022-11-01T01:30:00.000Z,22.38
2022-11-01T01:45:00.000Z,22.28
2022-11-01T02:00:00.000Z,23.14
2022-11-01T02:15:00.000Z,24.02
2022-11-01T02:30:00.000Z,23.06
2022-11-01T02:45:00.000Z,20.6
2022-11-01T03:15:00.000Z,18.83
2022-11-01T03:15:00.000Z,19.84
2022-11-01T03:30:00.000Z,19.82
2022-11-01T03:45:00.000Z,19.8
2022-11-01T04:00:00.000Z,20.56
2022-11-01T04:15:00.000Z,21.68
2022-11-01T04:30:00.000Z,21.58
2022-11-01T04:45:00.000Z,22.81
2022-11-01T05:00:00.000Z,24.52
2022-11-01T05:15:00.000Z,22.48
2022-11-01T05:30:00.000Z,23.33
2022-11-01T05:45:00.000Z,23.65
2022-11-01T06:00:00.000Z,23.31
2022-11-01T06:15:00.000Z,21.96
2022-11-01T06:30:00.000Z,21.75
2022-11-01T06:45:00.000Z,21.08
2022-11-01T07:00:00.000Z,18.96
2022-11-01T07:15:00.000Z,20.74
2022-11-01T07:30:00.000Z,21.38
2022-11-01T07:45:00.000Z,18.09
2022-11-01T08:00:00.000Z,20.47
2022-11-01T08:15:00.000Z,21.12
2022-11-01T08:30:00.000Z,20.26
2022-11-01T08:45:00.000Z,17.36
2022-11-01T09:00:00.000Z,16.42
2022-11-01T09:15:00.000Z,14.68
2022-11-01T09:30:00.000Z,15.01
2022-11-01T09:45:00.000Z,13.66
2022-11-01T10:00:00.000Z,16.13
2022-11-01T10:15:00.000Z,14.65
2022-11-01T10:30:00.000Z,11.84
2022-11-01T10:45:00.000Z,10.4
2022-11-01T11:00:00.000Z,10.44
2022-11-01T11:15:00.000Z,10.51
2022-11-01T11:30:00.000Z,11.68
2022-11-01T11:45:00.000Z,10.79
2022-11-01T12:00:00.000Z,10.11
2022-11-01T12:15:00.000Z,10.65
2022-11-01T12:30:00.000Z,9.75
2022-11-01T12:45:00.000Z,10.13
2022-11-01T13:00:00.000Z,10.69
2022-11-01T13:15:00.000Z,10.34
2022-11-01T13:30:00.000Z,10.25
2022-11-01T13:45:00.000Z,10.26
2022-11-01T14:00:00.000Z,13.45
2022-11-01T14:15:00.000Z,12.34
2022-11-01T14:30:00.000Z,15.39
2022-11-01T14:45:00.000Z,14.15
2022-11-01T15:00:00.000Z,21.79
2022-11-01T15:15:00.000Z,23.76
2022-11-01T15:30:00.000Z,25.41
2022-11-01T15:45:00.000Z,24.27
2022-11-01T16:00:00.000Z,19.88
2022-11-01T16:15:00.000Z,37.94
2022-11-01T16:30:00.000Z,29.33
2022-11-01T16:45:00.000Z,18.69
2022-11-01T17:00:00.000Z,20.54
2022-11-01T17:15:00.000Z,20.44
2022-11-01T17:30:00.000Z,21
2022-11-01T17:45:00.000Z,22
2022-11-01T18:00:00.000Z,27.4
2022-11-01T18:15:00.000Z,24.53
2022-11-01T18:30:00.000Z,26.13
2022-11-01T18:45:00.000Z,27
2022-11-01T19:00:00.000Z,27.88
2022-11-01T19:30:00.000Z,26
2022-11-01T19:30:00.000Z,31.87
2022-11-01T19:45:00.000Z,31.91
2022-11-01T20:00:00.000Z,36.69
2022-11-01T20:15:00.000Z,34.01
2022-11-01T20:30:00.000Z,30.08
2022-11-01T20:45:00.000Z,30.06
2022-11-01T21:00:00.000Z,35.22
2022-11-01T21:15:00.000Z,33.2
2022-11-01T21:30:00.000Z,30.56
2022-11-01T21:45:00.000Z,30.27
2022-11-01T22:00:00.000Z,28.05
2022-11-01T22:15:00.000Z,29.51
2022-11-01T22:30:00.000Z,29.49
2022-11-01T22:45:00.000Z,30.58
2022-11-01T23:00:00.000Z,31.2
2022-11-01T23:15:00.000Z,28.27
2022-11-01T23:30:00.000Z,27.95
2022-11-01T23:45:00.000Z,27.78
